Time;durP1;ratioP1;P1;durP2;ratioP2;P2;SDS_P1;SDS_P2;PMS_P1;PMS_P2;Temp;Humidity;BMP_temperature;BMP_pressure;BME280_temperature;BME280_humidity;BME280_pressure;Samples;Min_cycle;Max_cycle;Signal;HPM_P1;HPM_P2
2022/03/28 00:00:07;;;;;;;23.88;9.60;;;7.80;99.90;;;;;;5117479;28;20200;-84
2022/03/28 00:02:34;;;;;;;22.10;9.77;;;7.80;99.90;;;;;;5117131;28;20606;-83
2022/03/28 00:05:01;;;;;;;27.55;10.05;;;7.80;99.90;;;;;;5117757;28;20211;-85
2022/03/28 00:07:28;;;;;;;24.13;10.20;;;7.80;99.90;;;;;;5117637;28;20256;-84
2022/03/28 00:09:55;;;;;;;23.45;7.93;;;7.80;99.90;;;;;;5118041;28;20215;-86
2022/03/28 00:12:22;;;;;;;18.10;9.80;;;7.80;99.90;;;;;;5118135;28;20173;-89
2022/03/28 00:14:49;;;;;;;17.80;7.85;;;7.90;99.90;;;;;;5117858;28;20243;-88
2022/03/28 00:17:17;;;;;;;17.95;8.18;;;7.80;99.90;;;;;;5118108;28;20214;-88
2022/03/28 00:19:44;;;;;;;27.58;8.50;;;7.80;99.90;;;;;;5117851;28;20205;-87
2022/03/28 00:22:11;;;;;;;15.48;6.60;;;7.80;99.90;;;;;;5117867;28;20185;-86
2022/03/28 00:24:38;;;;;;;22.70;8.50;;;7.70;99.90;;;;;;5117591;28;20270;-86
2022/03/28 00:27:05;;;;;;;21.48;9.43;;;7.70;99.90;;;;;;5117748;28;20187;-85
2022/03/28 00:29:35;;;;;;;18.13;7.35;;;7.60;99.90;;;;;;5109336;28;20199;-85
2022/03/28 00:32:02;;;;;;;18.23;7.90;;;7.70;99.90;;;;;;5102304;28;20303;-85
2022/03/28 00:34:31;;;;;;;22.33;9.05;;;7.70;99.90;;;;;;5101291;28;20254;-85
2022/03/28 00:36:58;;;;;;;18.88;8.68;;;7.60;99.90;;;;;;5102300;28;20216;-86
2022/03/28 00:39:25;;;;;;;17.67;8.32;;;7.50;99.90;;;;;;5102937;28;20288;-84
2022/03/28 00:41:52;;;;;;;24.63;9.13;;;7.80;99.90;;;;;;5105796;28;20658;-84
2022/03/28 00:44:20;;;;;;;21.10;8.68;;;7.60;99.90;;;;;;5113604;28;20251;-85
2022/03/28 00:46:47;;;;;;;16.67;7.93;;;7.60;99.90;;;;;;5106563;28;20223;-85
2022/03/28 00:49:14;;;;;;;22.98;9.05;;;7.80;99.90;;;;;;5107252;28;20212;-85
2022/03/28 00:51:43;;;;;;;23.35;10.75;;;7.80;99.90;;;;;;5106199;28;20241;-86
2022/03/28 00:54:11;;;;;;;29.48;12.05;;;7.70;99.90;;;;;;5108657;28;20236;-84
2022/03/28 00:56:38;;;;;;;23.73;10.65;;;7.80;99.90;;;;;;5106819;28;20668;-84
2022/03/28 00:59:05;;;;;;;14.75;8.85;;;7.80;99.90;;;;;;5110733;28;20615;-84
2022/03/28 01:01:32;;;;;;;23.38;12.18;;;7.80;99.90;;;;;;5110496;28;20204;-84
2022/03/28 01:03:59;;;;;;;22.45;12.50;;;7.80;99.90;;;;;;5106589;28;20197;-85
2022/03/28 01:06:27;;;;;;;28.38;13.70;;;7.80;99.90;;;;;;5106763;28;20222;-85
2022/03/28 01:09:01;;;;;;;23.50;11.13;;;7.80;99.90;;;;;;5124217;28;20272;-83
2022/03/28 01:11:29;;;;;;;26.63;10.75;;;7.80;99.90;;;;;;5113036;28;20204;-83
2022/03/28 01:13:56;;;;;;;31.92;14.10;;;7.70;99.90;;;;;;5103770;28;20223;-84
2022/03/28 01:16:23;;;;;;;26.08;14.10;;;7.80;99.90;;;;;;5104407;28;20209;-85
2022/03/28 01:18:49;;;;;;;24.33;12.75;;;7.80;99.90;;;;;;5104223;28;20259;-84
2022/03/28 01:21:18;;;;;;;21.00;12.17;;;7.80;99.90;;;;;;5114495;28;20192;-84
2022/03/28 01:23:48;;;;;;;19.45;10.95;;;7.80;99.90;;;;;;5115951;28;20524;-86
2022/03/28 01:26:21;;;;;;;23.92;11.45;;;7.80;99.90;;;;;;5114938;28;20196;-84
2022/03/28 01:28:48;;;;;;;14.55;9.07;;;7.90;99.90;;;;;;5106813;28;20288;-85
2022/03/28 01:31:18;;;;;;;28.23;12.85;;;8.00;99.90;;;;;;5115410;28;20207;-84
2022/03/28 01:33:45;;;;;;;28.20;13.50;;;8.00;99.90;;;;;;5129841;28;20220;-84
2022/03/28 01:36:12;;;;;;;31.73;16.80;;;7.90;99.90;;;;;;5112123;28;20225;-84
2022/03/28 01:38:40;;;;;;;30.55;14.55;;;7.80;99.90;;;;;;5103821;28;20233;-85
2022/03/28 01:41:07;;;;;;;29.92;14.38;;;7.80;99.90;;;;;;5114674;28;20648;-84
2022/03/28 01:43:34;;;;;;;26.60;15.20;;;7.80;99.90;;;;;;5121500;28;20622;-85
2022/03/28 01:46:01;;;;;;;25.48;14.15;;;7.90;99.90;;;;;;5119408;28;20288;-85
2022/03/28 01:48:29;;;;;;;26.95;15.18;;;7.90;99.90;;;;;;5105473;28;20294;-85
2022/03/28 01:50:57;;;;;;;28.92;15.50;;;8.00;99.90;;;;;;5105575;28;20297;-84
2022/03/28 01:53:24;;;;;;;31.48;15.20;;;8.10;99.90;;;;;;5114920;28;20209;-85
2022/03/28 01:55:52;;;;;;;32.33;16.88;;;8.00;99.90;;;;;;5107837;28;20327;-84
2022/03/28 01:58:19;;;;;;;31.17;16.13;;;7.90;99.90;;;;;;5108511;28;20212;-85
2022/03/28 02:00:47;;;;;;;41.53;19.73;;;7.90;99.90;;;;;;5108632;28;20198;-86
2022/03/28 02:03:14;;;;;;;47.35;19.58;;;7.90;99.90;;;;;;5099969;28;20205;-85
2022/03/28 02:05:41;;;;;;;42.95;22.40;;;7.90;99.90;;;;;;5102482;28;20292;-86
2022/03/28 02:08:09;;;;;;;32.25;16.80;;;7.80;99.90;;;;;;5106307;28;20199;-85
2022/03/28 02:10:36;;;;;;;32.88;19.20;;;7.70;99.90;;;;;;5104046;28;20232;-85
2022/03/28 02:13:05;;;;;;;32.30;17.33;;;7.60;99.90;;;;;;5117351;28;20215;-84
2022/03/28 02:15:31;;;;;;;31.70;16.08;;;7.90;99.90;;;;;;5109398;28;20231;-85
2022/03/28 02:17:59;;;;;;;34.30;18.35;;;7.90;99.90;;;;;;5116689;28;20211;-83
2022/03/28 02:20:27;;;;;;;34.08;18.42;;;8.00;99.90;;;;;;5110085;28;20296;-84
2022/03/28 02:22:54;;;;;;;37.30;19.70;;;8.00;99.90;;;;;;5118594;28;20209;-84
2022/03/28 02:25:20;;;;;;;36.83;18.50;;;7.90;99.90;;;;;;5122710;28;20230;-84
2022/03/28 02:27:47;;;;;;;45.42;23.13;;;7.90;99.90;;;;;;5127711;28;20207;-84
2022/03/28 02:30:16;;;;;;;40.67;21.95;;;7.90;99.90;;;;;;5120324;28;20209;-84
2022/03/28 02:32:44;;;;;;;41.00;20.45;;;7.80;99.90;;;;;;5117140;28;20219;-85
2022/03/28 02:35:43;;;;;;;29.02;16.75;;;7.80;99.90;;;;;;5106885;28;20264;-85
2022/03/28 02:38:10;;;;;;;36.85;16.17;;;7.80;99.90;;;;;;5110981;28;20212;-86
2022/03/28 02:40:37;;;;;;;29.10;15.65;;;7.80;99.90;;;;;;5123220;28;20241;-85
2022/03/28 02:43:05;;;;;;;28.27;15.80;;;7.70;99.90;;;;;;5113865;28;20213;-85
2022/03/28 02:45:35;;;;;;;30.20;17.67;;;7.70;99.90;;;;;;5114871;28;20238;-85
2022/03/28 02:48:02;;;;;;;28.02;15.52;;;7.70;99.90;;;;;;5108487;28;20276;-85
2022/03/28 02:50:32;;;;;;;23.63;14.98;;;7.70;99.90;;;;;;5107712;28;20214;-85
2022/03/28 02:52:59;;;;;;;25.63;16.48;;;7.60;99.90;;;;;;5096844;28;20203;-84
2022/03/28 02:55:26;;;;;;;28.50;15.35;;;7.60;99.90;;;;;;5107069;28;20225;-85
2022/03/28 02:57:53;;;;;;;31.60;17.30;;;7.60;99.90;;;;;;5116193;28;20207;-86
2022/03/28 03:00:20;;;;;;;28.95;15.75;;;7.70;99.90;;;;;;5115500;28;20185;-86
2022/03/28 03:02:49;;;;;;;29.45;16.98;;;7.60;99.90;;;;;;5115840;28;20207;-86
2022/03/28 03:05:16;;;;;;;24.63;14.45;;;7.60;99.90;;;;;;5103265;28;20312;-85
2022/03/28 03:07:43;;;;;;;28.83;15.68;;;7.50;99.90;;;;;;5100435;28;20296;-83
2022/03/28 03:10:10;;;;;;;23.83;15.68;;;7.50;99.90;;;;;;5095794;28;20234;-84
2022/03/28 03:12:37;;;;;;;24.35;14.43;;;7.50;99.90;;;;;;5098823;28;20263;-84
2022/03/28 03:15:04;;;;;;;25.20;14.40;;;7.60;99.90;;;;;;5098460;28;21227;-84
2022/03/28 03:17:31;;;;;;;25.00;14.73;;;7.60;99.90;;;;;;5098493;28;20795;-84
2022/03/28 03:19:59;;;;;;;27.15;16.05;;;7.60;99.90;;;;;;5110458;28;20228;-84
2022/03/28 03:22:26;;;;;;;23.10;14.95;;;7.60;99.90;;;;;;5104508;28;20228;-84
2022/03/28 03:24:53;;;;;;;24.60;16.48;;;7.60;99.90;;;;;;5101231;28;20253;-84
2022/03/28 03:27:20;;;;;;;23.63;14.18;;;7.60;99.90;;;;;;5106934;28;20298;-84
2022/03/28 03:29:47;;;;;;;30.33;18.50;;;7.60;99.90;;;;;;5121835;28;20238;-84
2022/03/28 03:32:14;;;;;;;29.08;18.08;;;7.60;99.90;;;;;;5100628;28;20970;-86
2022/03/28 03:34:41;;;;;;;22.63;15.60;;;7.70;99.90;;;;;;5102940;28;20286;-86
2022/03/28 03:37:10;;;;;;;35.25;17.77;;;7.60;99.90;;;;;;5100970;28;20661;-85
2022/03/28 03:39:37;;;;;;;27.60;15.30;;;7.70;99.90;;;;;;5101554;28;20581;-85
2022/03/28 03:42:04;;;;;;;28.48;16.65;;;7.60;99.90;;;;;;5099680;28;20246;-85
2022/03/28 03:44:31;;;;;;;32.20;17.50;;;7.60;99.90;;;;;;5099023;28;20230;-86
2022/03/28 03:46:57;;;;;;;22.40;13.75;;;7.70;99.90;;;;;;5099025;28;20200;-84
2022/03/28 03:49:24;;;;;;;26.40;16.00;;;7.70;99.90;;;;;;5098406;28;20201;-85
2022/03/28 03:51:51;;;;;;;27.45;16.10;;;7.70;99.90;;;;;;5098259;28;20246;-87
2022/03/28 03:54:19;;;;;;;23.83;15.75;;;7.70;99.90;;;;;;5111398;28;20226;-83
2022/03/28 03:56:46;;;;;;;26.05;17.52;;;7.70;99.90;;;;;;5103801;28;20316;-85
2022/03/28 03:59:13;;;;;;;20.90;15.27;;;7.70;99.90;;;;;;5103735;28;20211;-85
2022/03/28 04:01:40;;;;;;;24.45;14.80;;;7.70;99.90;;;;;;5128859;28;20205;-85
2022/03/28 04:04:08;;;;;;;22.77;14.45;;;7.60;99.90;;;;;;5120102;28;20203;-85
2022/03/28 04:06:47;;;;;;;26.67;17.13;;;7.80;99.90;;;;;;5113099;22;20230;-85
2022/03/28 04:09:23;;;;;;;24.00;14.55;;;7.60;99.90;;;;;;5075098;28;20201;-85
2022/03/28 04:11:53;;;;;;;30.67;19.48;;;7.60;99.90;;;;;;5051507;28;20235;-85
2022/03/28 04:14:39;;;;;;;29.77;19.50;;;7.60;99.90;;;;;;5079660;28;20294;-86
2022/03/28 04:17:28;;;;;;;26.40;15.20;;;7.60;99.90;;;;;;5065702;28;20244;-85
2022/03/28 04:20:00;;;;;;;27.63;15.73;;;7.50;99.90;;;;;;5055547;28;20201;-85
2022/03/28 04:25:46;;;;;;;23.38;15.82;;;7.50;99.90;;;;;;5044592;28;20221;-85
2022/03/28 04:28:31;;;;;;;20.27;14.40;;;7.60;99.90;;;;;;5053347;28;20224;-84
2022/03/28 04:31:09;;;;;;;20.73;14.20;;;7.60;99.90;;;;;;5050698;28;20260;-84
2022/03/28 04:34:11;;;;;;;17.58;12.43;;;7.70;99.90;;;;;;5043211;28;20222;-85
2022/03/28 04:36:38;;;;;;;22.48;15.73;;;7.70;99.90;;;;;;5043319;28;20263;-85
2022/03/28 04:39:05;;;;;;;19.15;12.85;;;7.70;99.90;;;;;;5047905;28;20234;-85
2022/03/28 04:41:32;;;;;;;24.00;14.02;;;7.80;99.90;;;;;;5051873;28;20214;-85
2022/03/28 04:44:01;;;;;;;23.65;15.75;;;7.80;99.90;;;;;;5047485;28;20199;-85
2022/03/28 04:46:28;;;;;;;23.33;16.02;;;7.90;99.90;;;;;;5041927;28;20258;-84
2022/03/28 04:48:55;;;;;;;26.08;15.88;;;8.00;99.90;;;;;;5042023;28;20218;-83
2022/03/28 04:51:21;;;;;;;28.95;19.42;;;7.90;99.90;;;;;;5050125;28;20241;-85
2022/03/28 04:53:50;;;;;;;30.55;19.83;;;7.90;99.90;;;;;;5051841;28;20209;-86
2022/03/28 04:56:17;;;;;;;24.60;16.70;;;7.90;99.90;;;;;;5045703;28;20732;-82
2022/03/28 04:58:44;;;;;;;34.72;19.02;;;7.90;99.90;;;;;;5041943;28;20640;-85
2022/03/28 05:01:13;;;;;;;25.55;15.57;;;7.90;99.90;;;;;;5041418;28;20738;-83
2022/03/28 05:03:39;;;;;;;27.05;15.90;;;7.90;99.90;;;;;;5045390;28;20659;-84
2022/03/28 05:06:08;;;;;;;27.90;14.82;;;7.90;99.90;;;;;;5045276;28;20220;-84
2022/03/28 05:08:35;;;;;;;20.23;14.13;;;7.90;99.90;;;;;;5046229;28;20203;-81
2022/03/28 05:11:03;;;;;;;20.98;15.35;;;8.00;99.90;;;;;;5057962;28;20259;-81
2022/03/28 05:13:30;;;;;;;20.60;14.10;;;8.00;99.90;;;;;;5057246;28;20210;-83
2022/03/28 05:15:57;;;;;;;24.15;15.80;;;8.00;99.90;;;;;;5051910;28;20233;-81
2022/03/28 05:18:26;;;;;;;18.02;14.55;;;8.00;99.90;;;;;;5051369;28;20213;-83
2022/03/28 05:21:01;;;;;;;24.75;16.40;;;8.10;99.90;;;;;;5048003;28;20206;-84
2022/03/28 05:23:28;;;;;;;21.90;14.55;;;8.10;99.90;;;;;;5048512;28;20282;-84
2022/03/28 05:25:55;;;;;;;23.15;16.42;;;8.10;99.90;;;;;;5041999;28;20222;-84
2022/03/28 05:28:23;;;;;;;22.20;14.95;;;8.10;99.90;;;;;;5046363;28;20729;-84
2022/03/28 05:30:51;;;;;;;26.30;15.50;;;8.10;99.90;;;;;;5052227;28;20272;-83
2022/03/28 05:33:18;;;;;;;25.45;17.67;;;8.00;99.90;;;;;;5046859;28;20216;-86
2022/03/28 05:35:46;;;;;;;23.67;15.57;;;7.80;99.90;;;;;;5062792;28;20234;-85
2022/03/28 05:38:13;;;;;;;25.95;17.67;;;7.70;99.90;;;;;;5052136;28;20206;-86
2022/03/28 05:40:40;;;;;;;22.50;13.93;;;7.60;99.90;;;;;;5044629;28;20201;-84
2022/03/28 05:43:08;;;;;;;22.15;15.80;;;7.60;99.90;;;;;;5044920;28;20246;-86
2022/03/28 05:45:36;;;;;;;24.90;14.90;;;7.50;99.90;;;;;;5046491;28;20223;-85
2022/03/28 05:48:04;;;;;;;29.65;15.90;;;7.50;99.90;;;;;;5046626;28;20210;-86
2022/03/28 05:50:31;;;;;;;22.05;14.38;;;7.50;99.90;;;;;;5055692;28;20196;-85
2022/03/28 05:53:00;;;;;;;21.15;12.60;;;7.40;99.90;;;;;;5052956;28;20269;-86
2022/03/28 05:55:27;;;;;;;23.08;12.68;;;7.40;99.90;;;;;;5047441;28;20232;-85
2022/03/28 05:57:54;;;;;;;21.48;12.00;;;7.40;99.90;;;;;;5045077;28;20269;-87
2022/03/28 06:00:21;;;;;;;20.58;12.05;;;7.50;99.90;;;;;;5048363;28;20284;-82
2022/03/28 06:02:48;;;;;;;11.32;7.97;;;7.50;99.90;;;;;;5045685;28;20210;-84
2022/03/28 06:05:15;;;;;;;18.88;11.15;;;7.60;99.90;;;;;;5049888;28;20230;-85
2022/03/28 06:07:42;;;;;;;15.07;9.20;;;7.50;99.90;;;;;;5055202;28;20297;-88
2022/03/28 06:10:11;;;;;;;11.60;8.52;;;7.60;99.90;;;;;;5040540;28;20206;-87
2022/03/28 06:12:39;;;;;;;13.05;8.20;;;7.50;99.90;;;;;;5054457;28;20273;-86
2022/03/28 06:15:07;;;;;;;11.60;7.00;;;7.50;99.90;;;;;;5060390;28;20300;-86
2022/03/28 06:17:34;;;;;;;13.57;7.70;;;7.50;99.90;;;;;;5060152;28;20244;-87
2022/03/28 06:20:03;;;;;;;10.32;6.05;;;7.40;99.90;;;;;;5051348;28;20566;-86
2022/03/28 06:22:30;;;;;;;13.60;7.30;;;7.50;99.90;;;;;;5049602;28;20240;-86
2022/03/28 06:24:57;;;;;;;9.18;5.97;;;7.60;99.90;;;;;;5047673;28;20281;-87
2022/03/28 06:27:25;;;;;;;7.13;4.78;;;7.50;99.90;;;;;;5045437;28;20236;-86
2022/03/28 06:29:52;;;;;;;6.13;4.82;;;7.40;99.90;;;;;;5044829;28;20228;-87
2022/03/28 06:32:19;;;;;;;9.45;4.70;;;7.50;99.90;;;;;;5051762;28;20222;-88
2022/03/28 06:34:49;;;;;;;10.60;6.28;;;7.50;99.90;;;;;;5051822;28;20238;-86
2022/03/28 06:37:50;;;;;;;7.78;5.65;;;7.60;99.90;;;;;;5049409;28;20206;-86
2022/03/28 06:40:17;;;;;;;11.18;5.85;;;7.60;99.90;;;;;;4999483;28;20212;-87
2022/03/28 06:42:46;;;;;;;9.05;5.85;;;7.60;99.90;;;;;;5039228;28;20209;-87
2022/03/28 06:45:13;;;;;;;7.60;5.60;;;7.60;99.90;;;;;;5045054;28;20673;-89
2022/03/28 06:47:41;;;;;;;8.15;4.50;;;7.80;99.90;;;;;;5045210;28;20198;-87
2022/03/28 06:50:09;;;;;;;9.88;6.35;;;8.00;99.90;;;;;;5050213;28;20218;-87
2022/03/28 06:52:37;;;;;;;8.07;5.97;;;8.00;99.90;;;;;;5044054;28;20222;-87
2022/03/28 06:55:05;;;;;;;11.38;6.38;;;8.10;99.90;;;;;;5048568;28;20244;-87
2022/03/28 06:57:32;;;;;;;11.07;7.32;;;8.10;99.90;;;;;;5046742;28;20598;-87
2022/03/28 07:00:00;;;;;;;10.45;6.30;;;8.10;99.90;;;;;;5042165;28;20211;-87
2022/03/28 07:02:27;;;;;;;7.22;5.35;;;8.10;99.90;;;;;;5055735;28;20233;-87
2022/03/28 07:04:57;;;;;;;7.40;5.72;;;8.10;99.90;;;;;;5057287;28;20191;-87
2022/03/28 07:07:24;;;;;;;7.72;4.95;;;8.10;99.90;;;;;;5057359;28;20255;-86
2022/03/28 07:09:51;;;;;;;10.43;7.13;;;7.90;99.90;;;;;;5057453;28;20321;-87
2022/03/28 07:12:18;;;;;;;10.38;6.93;;;7.70;99.90;;;;;;5038372;28;20206;-88
2022/03/28 07:14:45;;;;;;;10.88;5.95;;;7.90;99.90;;;;;;5050449;28;20195;-86
2022/03/28 07:17:13;;;;;;;16.35;7.47;;;7.90;99.90;;;;;;5057120;28;20214;-84
2022/03/28 07:19:40;;;;;;;9.77;6.63;;;7.90;99.90;;;;;;5057168;28;20178;-85
2022/03/28 07:22:08;;;;;;;13.98;8.35;;;8.00;99.90;;;;;;5056631;28;20224;-85
2022/03/28 07:24:35;;;;;;;13.68;7.28;;;8.20;99.90;;;;;;5056839;28;20227;-85
2022/03/28 07:27:02;;;;;;;15.60;7.30;;;8.30;99.90;;;;;;5056271;28;20221;-86
2022/03/28 07:29:29;;;;;;;13.43;7.90;;;8.40;99.90;;;;;;5066502;28;20226;-87
2022/03/28 07:31:56;;;;;;;15.80;8.32;;;8.40;99.90;;;;;;5055602;28;20194;-87
2022/03/28 07:34:32;;;;;;;14.95;8.88;;;8.40;99.90;;;;;;5047120;28;20203;-86
2022/03/28 07:37:02;;;;;;;14.55;8.52;;;8.40;99.90;;;;;;5046024;28;20270;-85
2022/03/28 07:39:30;;;;;;;14.32;8.45;;;8.30;99.90;;;;;;5058454;28;20243;-84
2022/03/28 07:41:57;;;;;;;15.18;10.18;;;8.30;99.90;;;;;;5052865;28;20217;-88
2022/03/28 07:44:26;;;;;;;13.45;9.25;;;8.30;99.90;;;;;;5057185;28;20209;-89
2022/03/28 07:46:53;;;;;;;15.27;8.48;;;8.30;99.90;;;;;;5060924;28;20261;-89
2022/03/28 07:49:23;;;;;;;14.88;9.10;;;8.30;99.90;;;;;;5052938;28;20207;-87
2022/03/28 07:51:52;;;;;;;14.90;9.32;;;8.30;99.90;;;;;;5052925;28;20321;-86
2022/03/28 07:54:19;;;;;;;15.35;9.90;;;8.30;99.90;;;;;;5050994;28;20230;-88
2022/03/28 07:56:46;;;;;;;13.93;9.30;;;8.40;99.90;;;;;;5048221;28;20235;-86
2022/03/28 07:59:13;;;;;;;13.02;8.75;;;8.40;99.90;;;;;;5048081;28;20206;-88
2022/03/28 08:01:40;;;;;;;15.52;10.05;;;8.40;99.90;;;;;;5058597;28;20235;-86
2022/03/28 08:04:07;;;;;;;15.60;8.75;;;8.40;99.90;;;;;;5064790;28;20286;-88
2022/03/28 08:06:34;;;;;;;14.68;9.10;;;8.30;99.90;;;;;;5051235;28;20238;-85
2022/03/28 08:09:04;;;;;;;15.13;10.50;;;8.30;99.90;;;;;;5046760;28;20228;-89
2022/03/28 08:11:31;;;;;;;15.55;9.35;;;8.40;99.90;;;;;;5044483;28;20262;-87
2022/03/28 08:13:58;;;;;;;15.95;10.68;;;8.50;99.90;;;;;;5049769;28;20223;-86
2022/03/28 08:16:26;;;;;;;16.73;10.90;;;8.50;99.90;;;;;;5051468;28;20242;-88
2022/03/28 08:18:53;;;;;;;16.27;10.80;;;8.50;99.90;;;;;;5062196;28;20203;-87
2022/03/28 08:21:21;;;;;;;11.82;9.45;;;8.50;99.90;;;;;;5046852;28;20212;-88
2022/03/28 08:23:48;;;;;;;12.38;8.98;;;8.50;99.90;;;;;;5048336;28;20270;-86
2022/03/28 08:26:20;;;;;;;10.77;7.75;;;8.50;99.90;;;;;;5047279;28;20259;-88
2022/03/28 08:28:47;;;;;;;15.52;9.18;;;8.60;99.90;;;;;;5055049;28;20199;-88
2022/03/28 08:31:21;;;;;;;10.77;8.25;;;8.60;99.90;;;;;;5057914;28;20218;-87
2022/03/28 08:33:48;;;;;;;14.05;8.80;;;8.60;99.90;;;;;;5061324;28;20237;-88
2022/03/28 08:36:15;;;;;;;15.75;8.93;;;8.80;99.90;;;;;;5052638;28;20293;-86
2022/03/28 08:38:42;;;;;;;9.80;8.80;;;9.00;99.90;;;;;;5045651;28;20200;-87
2022/03/28 08:41:14;;;;;;;9.98;8.55;;;9.00;99.90;;;;;;5049520;28;20222;-86
2022/03/28 08:43:43;;;;;;;10.38;8.50;;;9.20;99.90;;;;;;5049333;28;20207;-87
2022/03/28 08:46:16;;;;;;;13.93;9.13;;;9.20;99.90;;;;;;5047161;28;20232;-87
2022/03/28 08:48:44;;;;;;;16.58;12.13;;;9.30;99.90;;;;;;5055462;28;20220;-88
2022/03/28 08:51:13;;;;;;;16.75;11.68;;;9.50;99.90;;;;;;5047345;28;20208;-88
2022/03/28 08:53:40;;;;;;;19.73;13.07;;;9.70;99.90;;;;;;5046439;28;20231;-89
2022/03/28 08:56:08;;;;;;;16.90;12.73;;;10.00;99.90;;;;;;5044982;28;20565;-87
2022/03/28 08:58:36;;;;;;;17.98;13.20;;;10.20;99.90;;;;;;5063386;28;20549;-89
2022/03/28 09:01:05;;;;;;;12.23;10.20;;;10.40;99.90;;;;;;5055569;28;20215;-88
2022/03/28 09:03:39;;;;;;;14.15;10.57;;;10.40;99.90;;;;;;5044047;28;20231;-87
2022/03/28 09:06:31;;;;;;;12.80;10.60;;;10.50;99.90;;;;;;5045411;28;20266;-87
2022/03/28 09:09:21;;;;;;;13.25;11.05;;;10.50;99.90;;;;;;5048983;28;20223;-87
2022/03/28 09:11:51;;;;;;;14.20;11.07;;;10.40;99.90;;;;;;5058552;28;20214;-86
2022/03/28 09:14:27;;;;;;;12.15;9.73;;;10.60;99.90;;;;;;5054847;28;20284;-87
2022/03/28 09:17:04;;;;;;;13.88;9.70;;;10.60;99.90;;;;;;5046860;28;20224;-89
2022/03/28 09:19:46;;;;;;;11.68;9.25;;;10.60;99.90;;;;;;5054491;28;20199;-88
2022/03/28 09:22:14;;;;;;;14.70;11.70;;;10.80;99.90;;;;;;5045749;28;20212;-87
2022/03/28 09:24:45;;;;;;;13.13;9.60;;;10.80;99.90;;;;;;5057612;28;20205;-88
2022/03/28 09:27:15;;;;;;;11.65;9.45;;;11.00;99.90;;;;;;5052696;28;20272;-87
2022/03/28 09:30:04;;;;;;;9.25;7.97;;;11.30;99.90;;;;;;5044130;28;20209;-88
2022/03/28 09:32:34;;;;;;;10.95;9.70;;;11.40;99.90;;;;;;5052257;28;20204;-85
2022/03/28 09:35:13;;;;;;;10.75;9.25;;;11.30;99.90;;;;;;5054239;28;20226;-85
2022/03/28 09:37:51;;;;;;;10.23;9.05;;;11.60;99.90;;;;;;5054634;28;20207;-88
2022/03/28 09:40:31;;;;;;;10.85;9.02;;;11.40;99.90;;;;;;5039406;28;20192;-87
2022/03/28 09:42:58;;;;;;;11.05;9.25;;;11.10;99.90;;;;;;5045098;28;20200;-89
2022/03/28 09:45:28;;;;;;;9.68;7.30;;;11.10;99.90;;;;;;5047132;28;20243;-87
2022/03/28 09:47:59;;;;;;;10.75;8.63;;;11.00;99.90;;;;;;5047261;28;20201;-88
2022/03/28 09:50:32;;;;;;;12.27;8.75;;;11.30;99.90;;;;;;5058601;28;20283;-87
2022/03/28 09:53:11;;;;;;;13.07;9.35;;;11.50;99.90;;;;;;5053434;28;20202;-90
2022/03/28 09:55:52;;;;;;;10.07;8.30;;;11.70;99.90;;;;;;5047228;28;20260;-88
2022/03/28 09:58:42;;;;;;;8.40;7.45;;;11.70;99.90;;;;;;5046300;28;20204;-87
2022/03/28 10:01:18;;;;;;;9.18;8.13;;;11.80;99.90;;;;;;5047433;28;20246;-87
2022/03/28 10:03:48;;;;;;;9.38;7.75;;;12.00;99.90;;;;;;5050110;28;20198;-88
2022/03/28 10:06:16;;;;;;;10.80;8.98;;;12.00;99.90;;;;;;5071921;22;20292;-86
2022/03/28 10:08:45;;;;;;;10.20;8.75;;;11.70;99.90;;;;;;5119275;28;20204;-86
2022/03/28 10:11:16;;;;;;;11.48;8.50;;;11.80;99.90;;;;;;5112570;28;20197;-85
2022/03/28 10:13:44;;;;;;;11.18;8.50;;;11.90;99.90;;;;;;5117384;28;20203;-85
2022/03/28 10:16:11;;;;;;;8.85;7.93;;;11.90;99.90;;;;;;5117154;28;20234;-85
2022/03/28 10:18:39;;;;;;;10.57;8.85;;;12.10;99.90;;;;;;5116294;28;20261;-85
2022/03/28 10:21:15;;;;;;;9.38;8.40;;;12.30;99.90;;;;;;5123576;28;20206;-84
2022/03/28 10:23:47;;;;;;;8.20;7.15;;;12.40;99.90;;;;;;5112894;28;20192;-85
2022/03/28 10:26:14;;;;;;;8.90;7.78;;;12.60;99.90;;;;;;5116229;28;20219;-83
2022/03/28 10:28:59;;;;;;;9.52;8.40;;;12.60;99.90;;;;;;5117133;28;20200;-86
2022/03/28 10:31:26;;;;;;;12.57;10.43;;;12.40;99.90;;;;;;5111215;28;20205;-86
2022/03/28 10:33:55;;;;;;;10.57;8.50;;;12.30;99.90;;;;;;5117589;28;20243;-85
2022/03/28 10:36:29;;;;;;;12.75;9.35;;;12.20;99.90;;;;;;5103503;28;20229;-85
2022/03/28 10:39:17;;;;;;;11.27;8.32;;;12.00;99.90;;;;;;5117445;28;20213;-85
2022/03/28 10:41:44;;;;;;;11.00;9.27;;;12.10;99.90;;;;;;5117458;28;20255;-83
2022/03/28 10:44:11;;;;;;;12.77;10.20;;;12.10;99.90;;;;;;5117785;28;20206;-86
2022/03/28 10:46:38;;;;;;;15.25;10.60;;;12.10;99.90;;;;;;5117107;28;20207;-85
2022/03/28 10:49:07;;;;;;;17.48;9.98;;;12.20;99.90;;;;;;5117472;28;20184;-85
2022/03/28 10:51:35;;;;;;;13.20;10.85;;;12.10;99.90;;;;;;5117588;28;20211;-88
2022/03/28 10:54:05;;;;;;;15.65;11.07;;;12.10;99.90;;;;;;5117618;28;20254;-88
2022/03/28 10:56:34;;;;;;;12.82;9.55;;;12.00;99.90;;;;;;5103259;28;20231;-86
2022/03/28 10:59:11;;;;;;;15.73;12.85;;;12.00;99.90;;;;;;5105148;28;20222;-85
2022/03/28 11:01:39;;;;;;;20.40;14.65;;;12.00;99.90;;;;;;5111607;28;20209;-87
2022/03/28 11:04:19;;;;;;;20.63;13.40;;;12.10;99.90;;;;;;5105849;28;20281;-87
2022/03/28 11:07:03;;;;;;;24.10;14.45;;;12.00;99.90;;;;;;5106671;28;20267;-85
2022/03/28 11:09:44;;;;;;;24.58;18.13;;;12.20;99.90;;;;;;5111464;28;20259;-84
2022/03/28 11:12:14;;;;;;;18.75;14.45;;;12.30;99.90;;;;;;5113455;28;20198;-84
2022/03/28 11:14:47;;;;;;;22.13;17.15;;;12.50;99.90;;;;;;5114006;28;20204;-86
2022/03/28 11:17:19;;;;;;;25.83;18.55;;;12.50;99.90;;;;;;5113834;28;20224;-87
2022/03/28 11:19:57;;;;;;;22.23;19.08;;;12.60;99.90;;;;;;5112675;28;20213;-86
2022/03/28 11:23:13;;;;;;;27.50;20.92;;;12.80;99.90;;;;;;5116815;28;20192;-88
2022/03/28 11:25:46;;;;;;;31.20;23.35;;;12.70;99.90;;;;;;5097085;28;20206;-87
2022/03/28 11:28:24;;;;;;;34.15;25.58;;;12.50;99.90;;;;;;5096087;28;20259;-85
2022/03/28 11:30:55;;;;;;;36.67;26.23;;;12.00;99.90;;;;;;5112072;28;20216;-84
2022/03/28 11:33:28;;;;;;;42.15;31.52;;;12.00;99.90;;;;;;5115777;28;20184;-86
2022/03/28 11:35:58;;;;;;;38.58;28.73;;;12.00;99.90;;;;;;5122492;28;20455;-87
2022/03/28 11:38:28;;;;;;;35.70;27.65;;;12.10;99.90;;;;;;5130324;28;20255;-85
2022/03/28 11:40:55;;;;;;;36.67;27.42;;;12.10;99.90;;;;;;5132596;28;20202;-84
2022/03/28 11:43:31;;;;;;;38.85;27.95;;;12.10;99.90;;;;;;5114263;28;20197;-84
2022/03/28 11:45:59;;;;;;;40.97;30.77;;;12.00;99.90;;;;;;5092487;28;20190;-85
2022/03/28 11:48:26;;;;;;;40.78;30.40;;;12.10;99.90;;;;;;5108065;28;20195;-85
2022/03/28 11:50:55;;;;;;;41.40;30.55;;;12.30;99.90;;;;;;5122667;28;20226;-85
2022/03/28 11:53:23;;;;;;;40.65;29.40;;;12.60;99.90;;;;;;5117092;28;20189;-83
2022/03/28 11:55:59;;;;;;;33.58;27.33;;;12.90;99.90;;;;;;5101159;28;20212;-84
2022/03/28 11:58:31;;;;;;;29.65;22.45;;;13.00;99.90;;;;;;5113314;28;20209;-83
2022/03/28 12:01:16;;;;;;;29.88;25.25;;;13.20;99.90;;;;;;5098417;28;20249;-84
2022/03/28 12:03:50;;;;;;;37.15;30.33;;;13.10;99.90;;;;;;5115122;28;20197;-85
2022/03/28 12:07:23;;;;;;;36.53;30.90;;;13.10;99.90;;;;;;5115396;28;20273;-86
2022/03/28 12:17:04;;;;;;;;;;;;;;;;;;;;;
2022/03/28 12:19:32;;;;;;;35.47;27.10;;;13.50;99.90;;;;;;5054956;28;20202;-85
2022/03/28 12:22:26;;;;;;;39.00;28.98;;;13.30;99.90;;;;;;5090508;28;20194;-87
2022/03/28 12:28:27;;;;;;;31.80;26.13;;;13.40;99.90;;;;;;5120349;28;20208;-85
2022/03/28 12:33:52;;;;;;;30.05;24.27;;;13.60;99.90;;;;;;5112128;28;20219;-87
2022/03/28 12:36:35;;;;;;;34.83;25.15;;;13.60;99.90;;;;;;5117540;28;20278;-87
2022/03/28 12:39:18;;;;;;;31.67;26.38;;;13.70;99.90;;;;;;5114410;28;20201;-88
2022/03/28 12:41:48;;;;;;;33.28;27.50;;;13.70;99.90;;;;;;5126081;28;20200;-86
2022/03/28 12:54:54;;;;;;;23.20;20.10;;;13.80;99.90;;;;;;5077468;28;20193;-88
2022/03/28 12:57:40;;;;;;;27.20;21.55;;;13.60;99.90;;;;;;5053138;28;20219;-88
2022/03/28 13:00:10;;;;;;;21.48;18.73;;;13.60;99.90;;;;;;5104827;28;20200;-86
2022/03/28 13:02:51;;;;;;;25.55;19.98;;;13.40;99.90;;;;;;5128623;28;20202;-88
2022/03/28 13:05:18;;;;;;;17.60;15.65;;;13.40;99.90;;;;;;5117165;28;20200;-88
2022/03/28 13:07:52;;;;;;;16.40;14.52;;;13.50;99.90;;;;;;5112206;28;20260;-86
2022/03/28 13:10:34;;;;;;;16.35;14.65;;;13.60;99.90;;;;;;5126408;28;20194;-87
2022/03/28 13:13:03;;;;;;;14.52;12.95;;;13.70;99.90;;;;;;5116723;28;20209;-87
2022/03/28 13:15:35;;;;;;;17.63;15.80;;;13.50;99.90;;;;;;5115895;28;20213;-87
2022/03/28 13:18:06;;;;;;;19.30;14.07;;;13.40;99.90;;;;;;5101119;28;20231;-87
2022/03/28 13:20:46;;;;;;;18.80;16.33;;;13.40;99.90;;;;;;5116812;28;20210;-88
2022/03/28 13:23:27;;;;;;;20.63;15.45;;;13.50;99.90;;;;;;5096844;28;20228;-86